Terminal Aerodrome Forecast
Issued by NWS

Home | Current Version | Previous Version | Text Only | Print | Product List | Glossary On
Versions: 1 2 3 4 5 6 7 8 9 10 11 12 13 14 15 16 17 18 19 20 21 22 23 24 25 26 27
000
FTUS43 KLOT 261738
TAFORD
TAF
KORD 261738Z 2618/2724 20008KT P6SM FEW030 SCT150 BKN250
     FM270100 14004KT P6SM SHRA VCTS SCT040CB OVC080
     FM270400 VRB03KT P6SM VCSH SCT025 BKN040
     FM270900 VRB03KT 6SM BR SCT025 BKN040
     FM271400 04006KT P6SM FEW030 BKN050
     FM272000 02012G18KT P6SM SCT020 BKN040=

USA.gov is the U.S. government's official web portal to all federal, state and local government web resources and services.